LPCS Informações do Aeroporto

Informações da Pista
Pista 17 Comprimento 3904 ft Largura 98 ft
Elevação 326 ft Limite 0 ft Heading 164
Pista 35 Comprimento 3904 ft Largura 98 ft
Elevação 287 ft Limite 0 ft Heading 344
Frequências do Aeroporto
Tipo GND Nome GND Frequência 121.825 MHZ
Tipo TWR Nome TWR Frequência 120.3 MHZ
Navaids do Aeroporto
Tipo NDB Nome Cascais Frequência 359 KHZ
Tipo VOR-DME Nome Cascais Frequência 114300 KHZ
Informações meteorológicas do aeroporto e NOTAM
ADDS - METARS form results

(1426 UTC 25 June 2019)
Data provider http://aviationweather.gov/metar/data/
 
METAR text: LPCS 251400Z 25005KT 190V310 9999 FEW030 24/14 Q1015
Conditions at: LPCS (CASCAIS , PT) observed 1400 UTC 25 June 2019
Temperature: 24.0°C (75°F)
Dewpoint: 14.0°C (57°F) [RH = 54%]
Pressure (altimeter): 29.97 inches Hg (1015.0 mb)
Winds: from the WSW (250 degrees) at 6 MPH (5 knots; 2.6 m/s)
Visibility: 6 or more miles (10+ km)
Ceiling: at least 12,000 feet AGL
Clouds: few clouds at 3000 feet AGL
Weather: no significant weather observed at this time

METAR text: LPCS 251330Z 21006KT 120V250 9999 FEW030 24/14 Q1015
Conditions at: LPCS (CASCAIS , PT) observed 1330 UTC 25 June 2019
Temperature: 24.0°C (75°F)
Dewpoint: 14.0°C (57°F) [RH = 54%]
Pressure (altimeter): 29.97 inches Hg (1015.0 mb)
Winds: from the SSW (210 degrees) at 7 MPH (6 knots; 3.1 m/s)
Visibility: 6 or more miles (10+ km)
Ceiling: at least 12,000 feet AGL
Clouds: few clouds at 3000 feet AGL
Weather: no significant weather observed at this time

Forecast for: LPCS (CASCAIS , PT)
Text: TAF LPCS 251400Z 2515/2524 VRB03KT 9999 FEW030
Forecast period: 1500 UTC 25 June 2019 to 0000 UTC 26 June 2019
Forecast type: FROM: standard forecast or significant change
Winds: variable direction winds at 3 MPH (3 knots; 1.5 m/s)
Visibility: 6 or more miles 10+ km)
Ceiling: at least 12,000 feet AGL
Clouds: few clouds at 3000 feet AGL
Weather: no significant weather forecast for this period
Text: PROB30
Forecast period: 1500 to 1900 UTC 25 June 2019
Forecast type: TEMPORARY: The following changes expected for less than half the time period
Visibility: 4 miles (6 km)
Ceiling: 4500 feet AGL
Clouds: scattered clouds at 1500 feet AGL
broken clouds at 4500 feet AGL
Weather: -RA  (light rain)
Text: TEMPO 2515/2519 6000 -RA SCT015 BKN045
Forecast period: 1500 UTC 25 June 2019 to 0000 UTC 26 June 2019
Forecast type: BECOMING: Conditions expected to become as follows by 1800 UTC 25 June 2019
Winds: from the NNW (340 degrees) at 12 MPH (10 knots; 5.1 m/s)
Visibility: 6 or more miles 10+ km)
Ceiling: at least 12,000 feet AGL
Clouds: few clouds at 3000 feet AGL
Weather: no significant weather forecast for this period